Iowa City, IA

8:34 AM CDT on March 30, 2017 (GMT -0500)
Iowa City Municipal | | Change Station
Active Advisory: Flood Watch Active Notice: Flood Watch

Elev 666 ft 41.64 °N, 91.55 °W | Updated 42 minutes ago

Overcast
Overcast
44 °F
Feels Like 39 °F
N
9
Wind Variable Wind from ENE

Today
High -- | Low -- °F
--% Chance of Precip.
Yesterday
High -- | Low -- °F
Precip. -- in
Pressure 29.70 in
Visibility 10.0 miles
Clouds Overcast 800 ft
Windchill 39 °F
Dew Point 41 °F
Humidity 89%
Rainfall 0.58 in
Snow Depth Not available.
6:52 AM 7:29 PM
Waxing Crescent, 8% visible
METAR KIOW 301252Z AUTO 06008KT 10SM OVC008 07/05 A2969 RMK AO2 SLP057 T00670050
Pressure 29.70 in
Visibility 10.0 miles
Clouds Overcast 800 ft
Windchill 39 °F
Dew Point 41 °F
Humidity 89%
Rainfall 0.58 in
Snow Depth Not available.
6:52 AM 7:29 PM
Waxing Crescent, 8% visible
METAR KIOW 301252Z AUTO 06008KT 10SM OVC008 07/05 A2969 RMK AO2 SLP057 T00670050

Get Your Daily Forecast Email!

Thanks for signing up!

Be on the lookout for a verification email in your inbox.

You'll start receiving severe weather alerts in your inbox..

×

10-Day Weather Forecast

Almanac

Astronomy

Mar. 30, 2017 Rise Set
Actual Time
Civil Twilight
Nautical Twilight
Astronomical Twilight
Moon
Length of Visible Light
Length of Day
Tomorrow will be .
, % of the Moon is Illuminated

Today's Extremes

State Highs State Lows

Community

WunderPhotos

Upload Photos

1,962,540 photos uploaded!

WunderBlog® & News

Nearby

Air Quality

  Air Quality AQ Index Pollutant
Not available.

Snow Depth

Station Depth Elevation

Earthquake Activity

City Distance Mag. Time & Date
Minimum magnitude displayed is 2.5.

Earthquake Activity

City Distance Mag. Time & Date
Minimum magnitude displayed is 2.5.

Coastal Water Temperatures

Place Temperature

Stations

Nearby Weather Stations

Station Location Temp. Windchill Dew Point Humidity Wind Precip. Elev Updated Type
                   

Watches & Warnings

Flood Watch
Issued: 3:54 AM CDT Mar. 30, 2017 – National Weather Service

The Flood Watch continues for
the Iowa river at Marengo
* until Wednesday morning.
* At 3:00 am Thursday the stage was 9.4 feet.
* Flood stage is 14.0 feet.
* Minor flooding is possible.
* Forecast... rise above flood stage Sunday morning... and continue
rising to 14.8 feet Monday morning. Fall below flood stage
Wednesday morning.
* This forecast is based on forecast rainfall. Consequently there is limited confidence
in the river reaching flood stage.


Lat... Lon 4182 9230 4187 9230 4182 9183 4175 9183
      4176 9197